sensor_id;sensor_type;location;lat;lon;timestamp;P1;durP1;ratioP1;P2;durP2;ratioP2
83119;SDS011;73001;51.784;4.660;2023-11-22T00:01:29;16.45;;;16.02;;
83119;SDS011;73001;51.784;4.660;2023-11-22T00:03:54;16.43;;;16.07;;
83119;SDS011;73001;51.784;4.660;2023-11-22T00:06:20;16.90;;;16.52;;
83119;SDS011;73001;51.784;4.660;2023-11-22T00:08:46;17.08;;;16.66;;
83119;SDS011;73001;51.784;4.660;2023-11-22T00:11:12;17.18;;;16.79;;
83119;SDS011;73001;51.784;4.660;2023-11-22T00:13:39;15.86;;;15.48;;
83119;SDS011;73001;51.784;4.660;2023-11-22T00:16:05;17.22;;;16.87;;
83119;SDS011;73001;51.784;4.660;2023-11-22T00:18:34;17.43;;;17.00;;
83119;SDS011;73001;51.784;4.660;2023-11-22T00:21:02;17.55;;;17.09;;
83119;SDS011;73001;51.784;4.660;2023-11-22T00:23:28;17.93;;;17.46;;
83119;SDS011;73001;51.784;4.660;2023-11-22T00:25:55;16.44;;;16.04;;
83119;SDS011;73001;51.784;4.660;2023-11-22T00:28:22;16.27;;;15.95;;
83119;SDS011;73001;51.784;4.660;2023-11-22T00:30:48;16.56;;;16.22;;
83119;SDS011;73001;51.784;4.660;2023-11-22T00:33:13;17.86;;;17.59;;
83119;SDS011;73001;51.784;4.660;2023-11-22T00:35:39;16.96;;;16.65;;
83119;SDS011;73001;51.784;4.660;2023-11-22T00:38:05;16.08;;;15.80;;
83119;SDS011;73001;51.784;4.660;2023-11-22T00:40:31;15.77;;;15.47;;
83119;SDS011;73001;51.784;4.660;2023-11-22T00:42:56;16.72;;;16.30;;
83119;SDS011;73001;51.784;4.660;2023-11-22T00:45:23;16.53;;;16.16;;
83119;SDS011;73001;51.784;4.660;2023-11-22T00:47:48;15.69;;;15.20;;
83119;SDS011;73001;51.784;4.660;2023-11-22T00:50:15;15.09;;;14.74;;
83119;SDS011;73001;51.784;4.660;2023-11-22T00:52:45;15.54;;;15.09;;
83119;SDS011;73001;51.784;4.660;2023-11-22T00:55:14;16.01;;;15.58;;
83119;SDS011;73001;51.784;4.660;2023-11-22T00:57:40;16.38;;;16.00;;
83119;SDS011;73001;51.784;4.660;2023-11-22T01:00:06;15.95;;;15.55;;
83119;SDS011;73001;51.784;4.660;2023-11-22T01:02:34;16.44;;;16.05;;
83119;SDS011;73001;51.784;4.660;2023-11-22T01:05:04;17.57;;;17.15;;
83119;SDS011;73001;51.784;4.660;2023-11-22T01:07:34;17.37;;;16.87;;
83119;SDS011;73001;51.784;4.660;2023-11-22T01:10:00;17.40;;;16.82;;
83119;SDS011;73001;51.784;4.660;2023-11-22T01:12:26;17.17;;;16.63;;
83119;SDS011;73001;51.784;4.660;2023-11-22T01:14:51;16.64;;;16.25;;
83119;SDS011;73001;51.784;4.660;2023-11-22T01:17:17;15.98;;;15.62;;
83119;SDS011;73001;51.784;4.660;2023-11-22T01:19:42;16.16;;;15.84;;
83119;SDS011;73001;51.784;4.660;2023-11-22T01:22:08;15.84;;;15.51;;
83119;SDS011;73001;51.784;4.660;2023-11-22T01:24:33;16.26;;;15.93;;
83119;SDS011;73001;51.784;4.660;2023-11-22T01:26:59;15.91;;;15.49;;
83119;SDS011;73001;51.784;4.660;2023-11-22T01:29:24;16.57;;;16.21;;
83119;SDS011;73001;51.784;4.660;2023-11-22T01:31:49;16.33;;;15.80;;
83119;SDS011;73001;51.784;4.660;2023-11-22T01:34:15;16.17;;;15.64;;
83119;SDS011;73001;51.784;4.660;2023-11-22T01:36:42;15.62;;;15.10;;
83119;SDS011;73001;51.784;4.660;2023-11-22T01:39:08;16.67;;;16.23;;
83119;SDS011;73001;51.784;4.660;2023-11-22T01:41:35;16.59;;;16.16;;
83119;SDS011;73001;51.784;4.660;2023-11-22T01:44:00;15.61;;;15.24;;
83119;SDS011;73001;51.784;4.660;2023-11-22T01:46:28;15.41;;;15.16;;
83119;SDS011;73001;51.784;4.660;2023-11-22T01:48:54;15.37;;;15.12;;
83119;SDS011;73001;51.784;4.660;2023-11-22T01:51:20;16.04;;;15.76;;
83119;SDS011;73001;51.784;4.660;2023-11-22T01:53:47;15.77;;;15.47;;
83119;SDS011;73001;51.784;4.660;2023-11-22T01:56:15;16.39;;;16.06;;
83119;SDS011;73001;51.784;4.660;2023-11-22T01:58:42;15.84;;;15.44;;
83119;SDS011;73001;51.784;4.660;2023-11-22T02:01:08;16.28;;;15.97;;
83119;SDS011;73001;51.784;4.660;2023-11-22T02:03:37;15.64;;;15.20;;
83119;SDS011;73001;51.784;4.660;2023-11-22T02:06:02;16.17;;;15.83;;
83119;SDS011;73001;51.784;4.660;2023-11-22T02:08:28;15.51;;;15.15;;
83119;SDS011;73001;51.784;4.660;2023-11-22T02:10:57;16.08;;;15.73;;
83119;SDS011;73001;51.784;4.660;2023-11-22T02:13:28;15.67;;;15.32;;
83119;SDS011;73001;51.784;4.660;2023-11-22T02:15:54;15.03;;;14.65;;
83119;SDS011;73001;51.784;4.660;2023-11-22T02:18:21;14.63;;;14.24;;
83119;SDS011;73001;51.784;4.660;2023-11-22T02:20:48;15.03;;;14.64;;
83119;SDS011;73001;51.784;4.660;2023-11-22T02:23:14;16.28;;;15.83;;
83119;SDS011;73001;51.784;4.660;2023-11-22T02:25:40;17.04;;;16.51;;
83119;SDS011;73001;51.784;4.660;2023-11-22T02:28:05;15.36;;;14.85;;
83119;SDS011;73001;51.784;4.660;2023-11-22T02:30:33;14.45;;;14.04;;
83119;SDS011;73001;51.784;4.660;2023-11-22T02:32:59;16.36;;;15.99;;
83119;SDS011;73001;51.784;4.660;2023-11-22T02:35:25;15.46;;;15.06;;
83119;SDS011;73001;51.784;4.660;2023-11-22T02:37:52;14.75;;;14.36;;
83119;SDS011;73001;51.784;4.660;2023-11-22T02:40:18;15.14;;;14.74;;
83119;SDS011;73001;51.784;4.660;2023-11-22T02:42:48;14.60;;;14.19;;
83119;SDS011;73001;51.784;4.660;2023-11-22T02:45:15;14.21;;;13.78;;
83119;SDS011;73001;51.784;4.660;2023-11-22T02:47:42;14.69;;;14.42;;
83119;SDS011;73001;51.784;4.660;2023-11-22T02:50:09;14.54;;;14.31;;
83119;SDS011;73001;51.784;4.660;2023-11-22T02:52:36;14.58;;;14.20;;
83119;SDS011;73001;51.784;4.660;2023-11-22T02:55:02;14.54;;;14.20;;
83119;SDS011;73001;51.784;4.660;2023-11-22T02:57:30;14.54;;;14.11;;
83119;SDS011;73001;51.784;4.660;2023-11-22T02:59:58;13.76;;;13.35;;
83119;SDS011;73001;51.784;4.660;2023-11-22T03:02:24;14.16;;;13.68;;
83119;SDS011;73001;51.784;4.660;2023-11-22T03:04:52;13.85;;;13.53;;
83119;SDS011;73001;51.784;4.660;2023-11-22T03:07:18;13.10;;;12.84;;
83119;SDS011;73001;51.784;4.660;2023-11-22T03:09:43;14.01;;;13.81;;
83119;SDS011;73001;51.784;4.660;2023-11-22T03:12:11;14.35;;;13.96;;
83119;SDS011;73001;51.784;4.660;2023-11-22T03:14:38;13.81;;;13.49;;
83119;SDS011;73001;51.784;4.660;2023-11-22T03:17:04;13.56;;;13.28;;
83119;SDS011;73001;51.784;4.660;2023-11-22T03:19:29;13.53;;;13.18;;
83119;SDS011;73001;51.784;4.660;2023-11-22T03:21:55;14.16;;;13.72;;
83119;SDS011;73001;51.784;4.660;2023-11-22T03:24:21;13.61;;;13.32;;
83119;SDS011;73001;51.784;4.660;2023-11-22T03:26:47;13.40;;;13.22;;
83119;SDS011;73001;51.784;4.660;2023-11-22T03:29:14;14.05;;;13.66;;
83119;SDS011;73001;51.784;4.660;2023-11-22T03:31:41;14.19;;;13.86;;
83119;SDS011;73001;51.784;4.660;2023-11-22T03:34:07;13.84;;;13.57;;
83119;SDS011;73001;51.784;4.660;2023-11-22T03:36:32;13.31;;;13.10;;
83119;SDS011;73001;51.784;4.660;2023-11-22T03:38:58;12.65;;;12.49;;
83119;SDS011;73001;51.784;4.660;2023-11-22T03:41:24;11.55;;;11.37;;
83119;SDS011;73001;51.784;4.660;2023-11-22T03:43:49;11.44;;;11.26;;
83119;SDS011;73001;51.784;4.660;2023-11-22T03:46:15;12.29;;;12.02;;
83119;SDS011;73001;51.784;4.660;2023-11-22T03:48:40;13.19;;;12.84;;
83119;SDS011;73001;51.784;4.660;2023-11-22T03:51:05;13.50;;;13.22;;
83119;SDS011;73001;51.784;4.660;2023-11-22T03:53:31;14.31;;;13.84;;
83119;SDS011;73001;51.784;4.660;2023-11-22T03:55:57;14.13;;;13.83;;
83119;SDS011;73001;51.784;4.660;2023-11-22T03:58:23;14.18;;;13.86;;
83119;SDS011;73001;51.784;4.660;2023-11-22T04:00:49;12.98;;;12.63;;
83119;SDS011;73001;51.784;4.660;2023-11-22T04:03:16;13.31;;;12.99;;
83119;SDS011;73001;51.784;4.660;2023-11-22T04:05:43;12.38;;;12.09;;
83119;SDS011;73001;51.784;4.660;2023-11-22T04:08:09;12.95;;;12.68;;
83119;SDS011;73001;51.784;4.660;2023-11-22T04:10:34;13.31;;;13.03;;
83119;SDS011;73001;51.784;4.660;2023-11-22T04:13:00;13.57;;;13.31;;
83119;SDS011;73001;51.784;4.660;2023-11-22T04:15:25;13.51;;;13.29;;
83119;SDS011;73001;51.784;4.660;2023-11-22T04:17:52;14.64;;;14.33;;
83119;SDS011;73001;51.784;4.660;2023-11-22T04:20:19;14.50;;;14.19;;
83119;SDS011;73001;51.784;4.660;2023-11-22T04:22:45;14.39;;;14.06;;
83119;SDS011;73001;51.784;4.660;2023-11-22T04:25:11;14.43;;;14.12;;
83119;SDS011;73001;51.784;4.660;2023-11-22T04:27:39;14.66;;;14.15;;
83119;SDS011;73001;51.784;4.660;2023-11-22T04:30:06;14.56;;;14.21;;
83119;SDS011;73001;51.784;4.660;2023-11-22T04:32:42;14.55;;;14.06;;
83119;SDS011;73001;51.784;4.660;2023-11-22T04:35:09;14.74;;;14.24;;
83119;SDS011;73001;51.784;4.660;2023-11-22T04:37:35;13.92;;;13.53;;
83119;SDS011;73001;51.784;4.660;2023-11-22T04:40:01;13.91;;;13.45;;
83119;SDS011;73001;51.784;4.660;2023-11-22T04:42:28;13.83;;;13.39;;
83119;SDS011;73001;51.784;4.660;2023-11-22T04:44:54;13.01;;;12.61;;
83119;SDS011;73001;51.784;4.660;2023-11-22T04:47:20;14.95;;;14.54;;
83119;SDS011;73001;51.784;4.660;2023-11-22T04:49:47;14.85;;;14.43;;
83119;SDS011;73001;51.784;4.660;2023-11-22T04:52:13;15.28;;;14.93;;
83119;SDS011;73001;51.784;4.660;2023-11-22T04:54:39;14.56;;;14.08;;
83119;SDS011;73001;51.784;4.660;2023-11-22T04:57:04;15.82;;;15.39;;
83119;SDS011;73001;51.784;4.660;2023-11-22T04:59:30;14.68;;;14.32;;
83119;SDS011;73001;51.784;4.660;2023-11-22T05:01:56;14.62;;;14.17;;
83119;SDS011;73001;51.784;4.660;2023-11-22T05:04:22;13.84;;;13.44;;
83119;SDS011;73001;51.784;4.660;2023-11-22T05:06:47;14.00;;;13.56;;
83119;SDS011;73001;51.784;4.660;2023-11-22T05:09:13;14.55;;;14.19;;
83119;SDS011;73001;51.784;4.660;2023-11-22T05:11:39;14.24;;;13.95;;
83119;SDS011;73001;51.784;4.660;2023-11-22T05:14:06;14.78;;;14.41;;
83119;SDS011;73001;51.784;4.660;2023-11-22T05:16:32;14.63;;;14.26;;
83119;SDS011;73001;51.784;4.660;2023-11-22T05:18:58;14.54;;;14.14;;
83119;SDS011;73001;51.784;4.660;2023-11-22T05:21:24;14.57;;;14.01;;
83119;SDS011;73001;51.784;4.660;2023-11-22T05:23:50;14.21;;;13.76;;
83119;SDS011;73001;51.784;4.660;2023-11-22T05:26:15;13.64;;;13.19;;
83119;SDS011;73001;51.784;4.660;2023-11-22T05:28:41;14.97;;;14.49;;
83119;SDS011;73001;51.784;4.660;2023-11-22T05:31:06;14.50;;;14.13;;
83119;SDS011;73001;51.784;4.660;2023-11-22T05:33:32;13.90;;;13.55;;
83119;SDS011;73001;51.784;4.660;2023-11-22T05:35:57;14.43;;;13.98;;
83119;SDS011;73001;51.784;4.660;2023-11-22T05:38:23;14.30;;;13.86;;
83119;SDS011;73001;51.784;4.660;2023-11-22T05:40:48;14.26;;;13.88;;
83119;SDS011;73001;51.784;4.660;2023-11-22T05:43:14;14.62;;;14.09;;
83119;SDS011;73001;51.784;4.660;2023-11-22T05:45:39;14.91;;;14.42;;
83119;SDS011;73001;51.784;4.660;2023-11-22T05:48:04;14.69;;;14.46;;
83119;SDS011;73001;51.784;4.660;2023-11-22T05:50:30;14.78;;;14.45;;
83119;SDS011;73001;51.784;4.660;2023-11-22T05:52:55;16.17;;;15.77;;
83119;SDS011;73001;51.784;4.660;2023-11-22T05:55:21;20.25;;;19.73;;
83119;SDS011;73001;51.784;4.660;2023-11-22T05:57:47;20.68;;;20.31;;
83119;SDS011;73001;51.784;4.660;2023-11-22T06:00:13;19.72;;;19.31;;
83119;SDS011;73001;51.784;4.660;2023-11-22T06:02:39;21.84;;;21.14;;
83119;SDS011;73001;51.784;4.660;2023-11-22T06:05:05;20.76;;;20.06;;
83119;SDS011;73001;51.784;4.660;2023-11-22T06:07:31;19.68;;;18.98;;
83119;SDS011;73001;51.784;4.660;2023-11-22T06:09:56;20.22;;;19.63;;
83119;SDS011;73001;51.784;4.660;2023-11-22T06:12:23;20.76;;;20.09;;
83119;SDS011;73001;51.784;4.660;2023-11-22T06:14:48;20.92;;;20.25;;
83119;SDS011;73001;51.784;4.660;2023-11-22T06:17:14;19.66;;;19.06;;
83119;SDS011;73001;51.784;4.660;2023-11-22T06:19:39;19.18;;;18.59;;
83119;SDS011;73001;51.784;4.660;2023-11-22T06:22:06;19.00;;;18.37;;
83119;SDS011;73001;51.784;4.660;2023-11-22T06:24:32;19.64;;;18.98;;
83119;SDS011;73001;51.784;4.660;2023-11-22T06:26:58;18.63;;;18.08;;
83119;SDS011;73001;51.784;4.660;2023-11-22T06:29:24;19.22;;;18.47;;
83119;SDS011;73001;51.784;4.660;2023-11-22T06:31:49;18.85;;;18.24;;
83119;SDS011;73001;51.784;4.660;2023-11-22T06:34:15;18.26;;;17.61;;
83119;SDS011;73001;51.784;4.660;2023-11-22T06:36:40;17.84;;;17.23;;
83119;SDS011;73001;51.784;4.660;2023-11-22T06:39:06;17.94;;;17.45;;
83119;SDS011;73001;51.784;4.660;2023-11-22T06:41:34;18.16;;;17.71;;
83119;SDS011;73001;51.784;4.660;2023-11-22T06:43:59;18.44;;;17.69;;
83119;SDS011;73001;51.784;4.660;2023-11-22T06:46:25;18.79;;;18.11;;
83119;SDS011;73001;51.784;4.660;2023-11-22T06:48:50;19.25;;;18.41;;
83119;SDS011;73001;51.784;4.660;2023-11-22T06:51:16;18.75;;;18.01;;
83119;SDS011;73001;51.784;4.660;2023-11-22T06:53:43;18.67;;;18.00;;
83119;SDS011;73001;51.784;4.660;2023-11-22T06:56:10;18.82;;;18.30;;
83119;SDS011;73001;51.784;4.660;2023-11-22T06:58:37;19.83;;;19.04;;
83119;SDS011;73001;51.784;4.660;2023-11-22T07:01:02;19.01;;;18.25;;
83119;SDS011;73001;51.784;4.660;2023-11-22T07:03:27;19.40;;;18.59;;
83119;SDS011;73001;51.784;4.660;2023-11-22T07:05:53;18.80;;;18.21;;
83119;SDS011;73001;51.784;4.660;2023-11-22T07:08:18;19.14;;;18.53;;
83119;SDS011;73001;51.784;4.660;2023-11-22T07:10:45;19.49;;;18.72;;
83119;SDS011;73001;51.784;4.660;2023-11-22T07:13:11;20.19;;;19.25;;
83119;SDS011;73001;51.784;4.660;2023-11-22T07:15:38;20.80;;;19.89;;
83119;SDS011;73001;51.784;4.660;2023-11-22T07:18:04;20.62;;;19.83;;
83119;SDS011;73001;51.784;4.660;2023-11-22T07:20:30;19.47;;;18.80;;
83119;SDS011;73001;51.784;4.660;2023-11-22T07:22:56;20.91;;;20.06;;
83119;SDS011;73001;51.784;4.660;2023-11-22T07:25:23;21.61;;;20.89;;
83119;SDS011;73001;51.784;4.660;2023-11-22T07:27:51;21.27;;;20.39;;
83119;SDS011;73001;51.784;4.660;2023-11-22T07:30:18;22.21;;;21.29;;
83119;SDS011;73001;51.784;4.660;2023-11-22T07:32:45;22.50;;;21.26;;
83119;SDS011;73001;51.784;4.660;2023-11-22T07:35:11;22.90;;;21.45;;
83119;SDS011;73001;51.784;4.660;2023-11-22T07:37:40;22.78;;;21.53;;
83119;SDS011;73001;51.784;4.660;2023-11-22T07:40:09;21.45;;;20.57;;
83119;SDS011;73001;51.784;4.660;2023-11-22T07:42:37;21.27;;;20.53;;
83119;SDS011;73001;51.784;4.660;2023-11-22T07:45:02;21.18;;;20.27;;
83119;SDS011;73001;51.784;4.660;2023-11-22T07:47:28;22.17;;;20.76;;
83119;SDS011;73001;51.784;4.660;2023-11-22T07:49:54;21.16;;;20.08;;
83119;SDS011;73001;51.784;4.660;2023-11-22T07:52:23;21.28;;;20.34;;
83119;SDS011;73001;51.784;4.660;2023-11-22T07:54:57;20.23;;;19.20;;
83119;SDS011;73001;51.784;4.660;2023-11-22T07:57:23;20.27;;;19.39;;
83119;SDS011;73001;51.784;4.660;2023-11-22T07:59:49;21.14;;;20.14;;
83119;SDS011;73001;51.784;4.660;2023-11-22T08:02:15;20.83;;;19.84;;
83119;SDS011;73001;51.784;4.660;2023-11-22T08:04:44;20.55;;;19.49;;
83119;SDS011;73001;51.784;4.660;2023-11-22T08:07:10;20.79;;;19.65;;
83119;SDS011;73001;51.784;4.660;2023-11-22T08:09:43;20.83;;;19.68;;
83119;SDS011;73001;51.784;4.660;2023-11-22T08:12:08;20.37;;;19.52;;
83119;SDS011;73001;51.784;4.660;2023-11-22T08:14:39;20.17;;;19.39;;
83119;SDS011;73001;51.784;4.660;2023-11-22T08:17:05;20.27;;;19.50;;
83119;SDS011;73001;51.784;4.660;2023-11-22T08:19:31;20.16;;;19.28;;
83119;SDS011;73001;51.784;4.660;2023-11-22T08:21:57;20.22;;;19.48;;
83119;SDS011;73001;51.784;4.660;2023-11-22T08:24:22;19.79;;;18.90;;
83119;SDS011;73001;51.784;4.660;2023-11-22T08:26:48;20.91;;;19.83;;
83119;SDS011;73001;51.784;4.660;2023-11-22T08:29:13;20.37;;;19.59;;
83119;SDS011;73001;51.784;4.660;2023-11-22T08:31:40;20.24;;;19.42;;
83119;SDS011;73001;51.784;4.660;2023-11-22T08:34:05;19.39;;;18.81;;
83119;SDS011;73001;51.784;4.660;2023-11-22T08:36:35;20.11;;;19.17;;
83119;SDS011;73001;51.784;4.660;2023-11-22T08:39:00;19.68;;;18.98;;
83119;SDS011;73001;51.784;4.660;2023-11-22T08:41:27;20.12;;;19.29;;
83119;SDS011;73001;51.784;4.660;2023-11-22T08:43:54;20.02;;;19.19;;
83119;SDS011;73001;51.784;4.660;2023-11-22T08:46:20;20.97;;;20.13;;
83119;SDS011;73001;51.784;4.660;2023-11-22T08:48:46;21.76;;;20.98;;
83119;SDS011;73001;51.784;4.660;2023-11-22T08:51:12;22.78;;;21.37;;
83119;SDS011;73001;51.784;4.660;2023-11-22T08:53:37;23.89;;;22.78;;
83119;SDS011;73001;51.784;4.660;2023-11-22T08:56:03;22.98;;;22.07;;
83119;SDS011;73001;51.784;4.660;2023-11-22T08:58:31;23.22;;;22.17;;
83119;SDS011;73001;51.784;4.660;2023-11-22T09:00:57;23.39;;;22.11;;
83119;SDS011;73001;51.784;4.660;2023-11-22T09:03:25;23.54;;;22.48;;
83119;SDS011;73001;51.784;4.660;2023-11-22T09:05:51;22.76;;;21.71;;
83119;SDS011;73001;51.784;4.660;2023-11-22T09:08:18;22.81;;;21.65;;
83119;SDS011;73001;51.784;4.660;2023-11-22T09:10:46;23.09;;;21.81;;
83119;SDS011;73001;51.784;4.660;2023-11-22T09:13:12;22.48;;;21.44;;
83119;SDS011;73001;51.784;4.660;2023-11-22T09:15:41;22.24;;;21.36;;
83119;SDS011;73001;51.784;4.660;2023-11-22T09:18:09;22.53;;;21.32;;
83119;SDS011;73001;51.784;4.660;2023-11-22T09:20:37;22.50;;;21.62;;
83119;SDS011;73001;51.784;4.660;2023-11-22T09:23:03;21.88;;;21.19;;
83119;SDS011;73001;51.784;4.660;2023-11-22T09:25:30;22.69;;;21.82;;
83119;SDS011;73001;51.784;4.660;2023-11-22T09:27:56;22.27;;;21.45;;
83119;SDS011;73001;51.784;4.660;2023-11-22T09:30:28;22.44;;;21.71;;
83119;SDS011;73001;51.784;4.660;2023-11-22T09:33:01;22.99;;;22.16;;
83119;SDS011;73001;51.784;4.660;2023-11-22T09:35:31;22.92;;;22.07;;
83119;SDS011;73001;51.784;4.660;2023-11-22T09:38:07;22.90;;;21.98;;
83119;SDS011;73001;51.784;4.660;2023-11-22T09:40:44;23.49;;;22.42;;
83119;SDS011;73001;51.784;4.660;2023-11-22T09:43:11;22.91;;;22.01;;
83119;SDS011;73001;51.784;4.660;2023-11-22T09:45:40;23.69;;;22.52;;
83119;SDS011;73001;51.784;4.660;2023-11-22T09:48:07;23.19;;;22.23;;
83119;SDS011;73001;51.784;4.660;2023-11-22T09:50:53;23.34;;;22.34;;
83119;SDS011;73001;51.784;4.660;2023-11-22T09:56:03;23.08;;;22.23;;
83119;SDS011;73001;51.784;4.660;2023-11-22T09:58:29;24.15;;;23.24;;
83119;SDS011;73001;51.784;4.660;2023-11-22T10:00:59;24.39;;;23.47;;
83119;SDS011;73001;51.784;4.660;2023-11-22T10:03:26;24.97;;;23.97;;
83119;SDS011;73001;51.784;4.660;2023-11-22T10:05:54;25.11;;;23.96;;
83119;SDS011;73001;51.784;4.660;2023-11-22T10:08:21;25.37;;;24.48;;
83119;SDS011;73001;51.784;4.660;2023-11-22T10:10:48;25.23;;;24.19;;
83119;SDS011;73001;51.784;4.660;2023-11-22T10:13:16;25.76;;;24.74;;
83119;SDS011;73001;51.784;4.660;2023-11-22T10:15:45;25.73;;;24.83;;
83119;SDS011;73001;51.784;4.660;2023-11-22T10:18:13;25.92;;;24.76;;
83119;SDS011;73001;51.784;4.660;2023-11-22T10:20:42;25.92;;;25.00;;
83119;SDS011;73001;51.784;4.660;2023-11-22T10:23:15;25.08;;;24.35;;
83119;SDS011;73001;51.784;4.660;2023-11-22T10:28:16;24.79;;;23.91;;
83119;SDS011;73001;51.784;4.660;2023-11-22T10:30:43;24.38;;;23.52;;
83119;SDS011;73001;51.784;4.660;2023-11-22T10:33:10;24.68;;;23.80;;
83119;SDS011;73001;51.784;4.660;2023-11-22T10:35:42;24.11;;;23.36;;
83119;SDS011;73001;51.784;4.660;2023-11-22T10:38:15;24.81;;;23.97;;
83119;SDS011;73001;51.784;4.660;2023-11-22T10:40:41;24.85;;;23.99;;
83119;SDS011;73001;51.784;4.660;2023-11-22T10:43:09;25.63;;;24.63;;
83119;SDS011;73001;51.784;4.660;2023-11-22T10:45:36;24.72;;;23.79;;
83119;SDS011;73001;51.784;4.660;2023-11-22T10:48:02;24.76;;;23.76;;
83119;SDS011;73001;51.784;4.660;2023-11-22T10:50:28;24.10;;;23.29;;
83119;SDS011;73001;51.784;4.660;2023-11-22T10:52:56;25.12;;;24.29;;
83119;SDS011;73001;51.784;4.660;2023-11-22T10:55:29;24.98;;;24.12;;
83119;SDS011;73001;51.784;4.660;2023-11-22T10:58:04;24.31;;;23.26;;
83119;SDS011;73001;51.784;4.660;2023-11-22T11:00:31;24.38;;;23.23;;
83119;SDS011;73001;51.784;4.660;2023-11-22T11:02:59;25.59;;;24.35;;
83119;SDS011;73001;51.784;4.660;2023-11-22T11:05:30;25.05;;;24.04;;
83119;SDS011;73001;51.784;4.660;2023-11-22T11:08:07;23.87;;;23.00;;
83119;SDS011;73001;51.784;4.660;2023-11-22T11:10:42;24.22;;;23.25;;
83119;SDS011;73001;51.784;4.660;2023-11-22T11:13:09;24.25;;;23.35;;
83119;SDS011;73001;51.784;4.660;2023-11-22T11:15:36;24.71;;;23.62;;
83119;SDS011;73001;51.784;4.660;2023-11-22T11:18:03;22.16;;;21.46;;
83119;SDS011;73001;51.784;4.660;2023-11-22T11:21:07;21.44;;;20.79;;
83119;SDS011;73001;51.784;4.660;2023-11-22T11:23:26;21.52;;;20.85;;
83119;SDS011;73001;51.784;4.660;2023-11-22T11:25:56;20.67;;;19.99;;
83119;SDS011;73001;51.784;4.660;2023-11-22T11:28:46;20.73;;;20.03;;
83119;SDS011;73001;51.784;4.660;2023-11-22T11:31:13;21.25;;;20.52;;
83119;SDS011;73001;51.784;4.660;2023-11-22T11:38:53;22.04;;;21.19;;
83119;SDS011;73001;51.784;4.660;2023-11-22T11:41:33;22.24;;;21.28;;
83119;SDS011;73001;51.784;4.660;2023-11-22T11:44:04;21.68;;;20.87;;
83119;SDS011;73001;51.784;4.660;2023-11-22T11:46:34;22.37;;;21.57;;
83119;SDS011;73001;51.784;4.660;2023-11-22T11:49:03;22.17;;;21.40;;
83119;SDS011;73001;51.784;4.660;2023-11-22T11:51:35;22.99;;;22.02;;
83119;SDS011;73001;51.784;4.660;2023-11-22T11:54:02;23.02;;;21.96;;
83119;SDS011;73001;51.784;4.660;2023-11-22T11:56:28;24.65;;;23.84;;
83119;SDS011;73001;51.784;4.660;2023-11-22T11:58:56;24.87;;;23.64;;
83119;SDS011;73001;51.784;4.660;2023-11-22T12:01:24;25.68;;;24.55;;
83119;SDS011;73001;51.784;4.660;2023-11-22T12:03:52;24.49;;;23.52;;
83119;SDS011;73001;51.784;4.660;2023-11-22T12:06:18;26.46;;;25.45;;
83119;SDS011;73001;51.784;4.660;2023-11-22T12:08:44;26.03;;;24.80;;
83119;SDS011;73001;51.784;4.660;2023-11-22T12:11:12;26.16;;;25.09;;
83119;SDS011;73001;51.784;4.660;2023-11-22T12:13:43;27.58;;;26.18;;
83119;SDS011;73001;51.784;4.660;2023-11-22T12:16:15;27.42;;;26.14;;
83119;SDS011;73001;51.784;4.660;2023-11-22T12:18:42;27.62;;;26.47;;
83119;SDS011;73001;51.784;4.660;2023-11-22T12:21:09;28.64;;;26.90;;
83119;SDS011;73001;51.784;4.660;2023-11-22T12:23:38;29.11;;;26.99;;
83119;SDS011;73001;51.784;4.660;2023-11-22T12:26:09;28.89;;;27.48;;
83119;SDS011;73001;51.784;4.660;2023-11-22T12:28:36;28.74;;;27.33;;
83119;SDS011;73001;51.784;4.660;2023-11-22T12:31:08;27.72;;;26.61;;
83119;SDS011;73001;51.784;4.660;2023-11-22T12:33:38;27.21;;;26.14;;
83119;SDS011;73001;51.784;4.660;2023-11-22T12:36:05;27.59;;;26.16;;
83119;SDS011;73001;51.784;4.660;2023-11-22T12:38:32;29.41;;;27.82;;
83119;SDS011;73001;51.784;4.660;2023-11-22T12:40:59;29.15;;;27.74;;
83119;SDS011;73001;51.784;4.660;2023-11-22T12:43:28;28.73;;;27.17;;
83119;SDS011;73001;51.784;4.660;2023-11-22T12:48:32;27.31;;;26.03;;
83119;SDS011;73001;51.784;4.660;2023-11-22T12:50:58;27.80;;;26.40;;
83119;SDS011;73001;51.784;4.660;2023-11-22T12:53:25;27.41;;;26.03;;
83119;SDS011;73001;51.784;4.660;2023-11-22T12:55:53;29.01;;;27.00;;
83119;SDS011;73001;51.784;4.660;2023-11-22T12:58:26;30.43;;;28.58;;
83119;SDS011;73001;51.784;4.660;2023-11-22T13:00:52;29.53;;;27.70;;
83119;SDS011;73001;51.784;4.660;2023-11-22T13:03:26;29.23;;;27.65;;
83119;SDS011;73001;51.784;4.660;2023-11-22T13:05:52;29.26;;;27.96;;
83119;SDS011;73001;51.784;4.660;2023-11-22T13:08:18;29.70;;;28.21;;
83119;SDS011;73001;51.784;4.660;2023-11-22T13:10:47;29.70;;;28.12;;
83119;SDS011;73001;51.784;4.660;2023-11-22T13:13:23;30.73;;;28.45;;
83119;SDS011;73001;51.784;4.660;2023-11-22T13:15:50;29.77;;;28.10;;
83119;SDS011;73001;51.784;4.660;2023-11-22T13:18:17;30.79;;;29.27;;
83119;SDS011;73001;51.784;4.660;2023-11-22T13:20:43;30.48;;;28.63;;
83119;SDS011;73001;51.784;4.660;2023-11-22T13:23:10;29.03;;;27.65;;
83119;SDS011;73001;51.784;4.660;2023-11-22T13:25:39;28.11;;;26.77;;
83119;SDS011;73001;51.784;4.660;2023-11-22T13:28:06;28.29;;;27.06;;
83119;SDS011;73001;51.784;4.660;2023-11-22T13:30:32;30.38;;;28.77;;
83119;SDS011;73001;51.784;4.660;2023-11-22T13:32:57;31.56;;;29.88;;
83119;SDS011;73001;51.784;4.660;2023-11-22T13:35:24;31.20;;;29.76;;
83119;SDS011;73001;51.784;4.660;2023-11-22T13:37:52;31.00;;;29.52;;
83119;SDS011;73001;51.784;4.660;2023-11-22T13:40:19;29.97;;;28.44;;
83119;SDS011;73001;51.784;4.660;2023-11-22T13:42:49;30.45;;;28.76;;
83119;SDS011;73001;51.784;4.660;2023-11-22T13:45:17;30.64;;;28.57;;
83119;SDS011;73001;51.784;4.660;2023-11-22T13:47:44;31.55;;;29.63;;
83119;SDS011;73001;51.784;4.660;2023-11-22T13:50:11;31.02;;;29.50;;
83119;SDS011;73001;51.784;4.660;2023-11-22T13:52:40;29.42;;;27.89;;
83119;SDS011;73001;51.784;4.660;2023-11-22T13:55:05;30.28;;;28.82;;
83119;SDS011;73001;51.784;4.660;2023-11-22T13:57:35;32.68;;;30.70;;
83119;SDS011;73001;51.784;4.660;2023-11-22T14:00:01;33.87;;;31.42;;
83119;SDS011;73001;51.784;4.660;2023-11-22T14:02:38;35.36;;;33.57;;
83119;SDS011;73001;51.784;4.660;2023-11-22T14:05:05;35.96;;;34.21;;
83119;SDS011;73001;51.784;4.660;2023-11-22T14:07:33;38.80;;;37.10;;
83119;SDS011;73001;51.784;4.660;2023-11-22T14:10:00;42.64;;;40.16;;
83119;SDS011;73001;51.784;4.660;2023-11-22T14:12:28;44.86;;;41.79;;
83119;SDS011;73001;51.784;4.660;2023-11-22T14:14:55;48.92;;;44.90;;
83119;SDS011;73001;51.784;4.660;2023-11-22T14:17:21;51.74;;;46.90;;
83119;SDS011;73001;51.784;4.660;2023-11-22T14:19:46;54.31;;;49.04;;
83119;SDS011;73001;51.784;4.660;2023-11-22T14:22:12;58.33;;;52.01;;
83119;SDS011;73001;51.784;4.660;2023-11-22T14:24:42;61.84;;;54.56;;
83119;SDS011;73001;51.784;4.660;2023-11-22T14:27:08;65.75;;;57.59;;
83119;SDS011;73001;51.784;4.660;2023-11-22T14:29:35;66.80;;;57.61;;
83119;SDS011;73001;51.784;4.660;2023-11-22T14:32:00;65.07;;;56.60;;
83119;SDS011;73001;51.784;4.660;2023-11-22T14:34:26;65.88;;;58.85;;